This is the latest recevied weather packets stored in our database for station/object WA6ODQ-13. If no packets are shown the sender has not sent any weather packets the latest 1 day(s).
| Time | Temp. | Humidity | Pressure | Rain* | Wind** | Luminosity | Snow |
|---|---|---|---|---|---|---|---|
| 1778096789 | 22.78° C | 61% | 1018.2 hPa | 0 mm | - | 397 W/m² | - |
| 1778096183 | 22.78° C | 62% | 1018.2 hPa | 0 mm | - | 292 W/m² | - |
| 1778095880 | 22.78° C | 59% | 1018.6 hPa | 0 mm | - | 274 W/m² | - |
| 1778094665 | 21.67° C | 65% | 1018.7 hPa | 0 mm | - | 170 W/m² | - |
| 1778093453 | 22.78° C | 61% | 1018.7 hPa | 0 mm | - | 285 W/m² | - |
| 1778092240 | 23.89° C | 63% | 1018.7 hPa | 0 mm | - | 246 W/m² | - |
| 1778091635 | 22.78° C | 66% | 1018.7 hPa | 0 mm | - | 828 W/m² | - |
| 1778091333 | 22.22° C | 67% | 1018.8 hPa | 0 mm | - | 708 W/m² | - |
| 1778089514 | 21.11° C | 70% | 1019.2 hPa | 0 mm | - | 414 W/m² | - |
| 1778088302 | 19.44° C | 74% | 1019 hPa | 0 mm | - | 410 W/m² | - |
| 1778086788 | 18.89° C | 76% | 1018.9 hPa | 0 mm | - | 298 W/m² | - |
| 1778086182 | 18.33° C | 76% | 1018.9 hPa | 0 mm | - | 276 W/m² | - |
| 1778085879 | 17.78° C | 77% | 1018.8 hPa | 0 mm | - | 261 W/m² | - |
| 1778084664 | 16.67° C | 80% | 1018.8 hPa | 0 mm | - | 203 W/m² | - |
| 1778084356 | 16.67° C | 81% | 1018.6 hPa | 0 mm | - | 196 W/m² | - |
| 1778083751 | 16.67° C | 80% | 1018.7 hPa | 0 mm | - | 177 W/m² | - |
| 1778083448 | 16.67° C | 81% | 1018.8 hPa | 0 mm | - | 165 W/m² | - |
| 1778083146 | 16.11° C | 81% | 1018.7 hPa | 0 mm | - | 150 W/m² | - |
| 1778082843 | 16.11° C | 82% | 1018.9 hPa | 0 mm | - | 143 W/m² | - |
| 1778081725 | 15.56° C | 82% | 1018.8 hPa | 0 mm | - | 126 W/m² | - |
| 1778080818 | 15.56° C | 82% | 1018.8 hPa | 0 mm | - | 108 W/m² | - |
| 1778080516 | 15.56° C | 83% | 1018.6 hPa | 0 mm | - | 107 W/m² | - |
| 1778080212 | 15.56° C | 84% | 1018.6 hPa | 0 mm | - | 102 W/m² | - |
| 1778079908 | 15° C | 83% | 1018.8 hPa | 0 mm | - | 100 W/m² | - |
| 1778078394 | 15° C | 84% | 1018.5 hPa | 0 mm | - | 73 W/m² | - |
* Rain latest hour (hover to see other rain measurements)
** Current wind speed in m/s (hover to see current wind gust speed)